createdAt,value
2023-08-24T00:02:03.466Z,100371.63
2023-08-24T00:04:30.639Z,100371.63
2023-08-24T00:06:57.554Z,100375.16
2023-08-24T00:09:24.530Z,100380.28
2023-08-24T00:11:53.515Z,100370.41
2023-08-24T00:14:20.564Z,100364.28
2023-08-24T00:16:47.467Z,100364.47
2023-08-24T00:19:14.500Z,100360.59
2023-08-24T00:21:41.418Z,100347.72
2023-08-24T00:24:08.437Z,100345.88
2023-08-24T00:26:35.762Z,100352.84
2023-08-24T00:29:02.710Z,100356.94
2023-08-24T00:31:29.652Z,100365.53
2023-08-24T00:33:56.731Z,100374.84
2023-08-24T00:36:24.481Z,100358.19
2023-08-24T00:38:52.895Z,100364.69
2023-08-24T00:41:20.152Z,100372.38
2023-08-24T00:43:47.690Z,100378.41
2023-08-24T00:46:14.826Z,100377.00
2023-08-24T00:48:41.954Z,100378.06
2023-08-24T00:51:09.157Z,100386.78
2023-08-24T00:53:37.797Z,100378.41
2023-08-24T00:56:05.754Z,100374.81
2023-08-24T00:58:34.264Z,100382.53
2023-08-24T01:01:01.394Z,100376.63
2023-08-24T01:03:28.471Z,100378.47
2023-08-24T01:05:55.497Z,100377.66
2023-08-24T01:08:23.701Z,100388.53
2023-08-24T01:11:29.727Z,100383.69
2023-08-24T01:14:16.856Z,100374.38
2023-08-24T01:16:47.667Z,100381.94
2023-08-24T01:19:44.428Z,100380.47
2023-08-24T01:22:21.229Z,100372.69
2023-08-24T01:25:17.399Z,100380.03
2023-08-24T01:27:44.875Z,100368.31
2023-08-24T01:30:12.838Z,100365.81
2023-08-24T01:32:39.975Z,100386.13
2023-08-24T01:35:10.722Z,100381.72
2023-08-24T01:37:39.257Z,100381.31
2023-08-24T01:40:40.038Z,100379.28
2023-08-24T01:43:11.096Z,100375.84
2023-08-24T01:45:39.130Z,100381.34
2023-08-24T01:48:06.935Z,100368.34
2023-08-24T01:50:34.670Z,100364.09
2023-08-24T01:53:01.959Z,100365.91
2023-08-24T01:55:29.258Z,100355.34
2023-08-24T01:57:57.991Z,100356.38
2023-08-24T02:00:25.351Z,100366.72
2023-08-24T02:02:52.537Z,100369.16
2023-08-24T02:05:19.746Z,100363.28
2023-08-24T02:07:46.730Z,100365.31
2023-08-24T02:10:13.837Z,100368.13
2023-08-24T02:12:40.754Z,100370.97
2023-08-24T02:15:08.276Z,100368.34
2023-08-24T02:17:35.244Z,100365.50
2023-08-24T02:20:03.042Z,100373.78
2023-08-24T02:22:31.747Z,100372.97
2023-08-24T02:24:58.819Z,100364.41
2023-08-24T02:27:25.850Z,100368.13
2023-08-24T02:29:52.787Z,100370.34
2023-08-24T02:32:19.726Z,100362.63
2023-08-24T02:34:46.971Z,100360.94
2023-08-24T02:37:13.916Z,100353.00
2023-08-24T02:39:40.824Z,100353.84
2023-08-24T02:42:07.758Z,100355.63
2023-08-24T02:44:34.792Z,100344.91
2023-08-24T02:47:01.753Z,100338.22
2023-08-24T02:49:28.795Z,100337.41
2023-08-24T02:51:55.710Z,100330.91
2023-08-24T02:54:22.700Z,100312.28
2023-08-24T02:56:49.712Z,100296.84
2023-08-24T02:59:16.638Z,100283.03
2023-08-24T03:01:43.750Z,100278.19
2023-08-24T03:04:10.717Z,100290.31
2023-08-24T03:06:37.646Z,100286.66
2023-08-24T03:09:07.213Z,100298.81
2023-08-24T03:11:34.169Z,100309.59
2023-08-24T03:14:01.092Z,100313.09
2023-08-24T03:16:28.581Z,100311.06
2023-08-24T03:18:55.520Z,100293.63
2023-08-24T03:21:22.555Z,100279.78
2023-08-24T03:23:49.532Z,100262.31
2023-08-24T03:26:17.740Z,100233.41
2023-08-24T03:28:44.966Z,100229.13
2023-08-24T03:31:11.949Z,100228.47
2023-08-24T03:33:40.079Z,100229.72
2023-08-24T03:36:07.369Z,100256.03
2023-08-24T03:38:34.360Z,100277.59
2023-08-24T03:41:05.216Z,100275.75
2023-08-24T03:43:36.675Z,100273.53
2023-08-24T03:46:05.468Z,100257.25
2023-08-24T03:48:33.986Z,100245.47
2023-08-24T03:51:01.236Z,100252.19
2023-08-24T03:53:28.298Z,100255.84
2023-08-24T03:55:55.554Z,100251.41
2023-08-24T03:58:22.741Z,100245.69
2023-08-24T04:00:49.770Z,100237.72
2023-08-24T04:03:16.993Z,100229.22
2023-08-24T04:05:43.989Z,100233.69
2023-08-24T04:08:11.036Z,100241.19
2023-08-24T04:10:39.326Z,100247.09
2023-08-24T04:13:06.409Z,100234.28
2023-08-24T04:15:33.719Z,100227.59
2023-08-24T04:18:00.758Z,100223.50
2023-08-24T04:20:27.781Z,100227.75
2023-08-24T04:22:57.276Z,100229.03
2023-08-24T04:25:24.543Z,100229.38
2023-08-24T04:27:51.800Z,100226.56
2023-08-24T04:30:19.124Z,100219.63
2023-08-24T04:32:46.094Z,100234.06
2023-08-24T04:35:13.167Z,100221.06
2023-08-24T04:37:40.377Z,100219.25
2023-08-24T04:40:12.230Z,100227.16
2023-08-24T04:42:39.205Z,100229.22
2023-08-24T04:45:06.823Z,100233.53
2023-08-24T04:47:33.800Z,100233.91
2023-08-24T04:50:00.843Z,100233.94
2023-08-24T04:52:27.765Z,100241.06
2023-08-24T04:54:54.684Z,100241.44
2023-08-24T04:57:22.480Z,100248.50
2023-08-24T04:59:51.032Z,100237.75
2023-08-24T05:02:17.947Z,100234.31
2023-08-24T05:04:44.963Z,100242.22
2023-08-24T05:07:11.901Z,100238.56
2023-08-24T05:09:38.830Z,100239.81
2023-08-24T05:12:06.122Z,100231.50
2023-08-24T05:14:34.138Z,100230.66
2023-08-24T05:17:01.135Z,100231.09
2023-08-24T05:19:29.960Z,100238.59
2023-08-24T05:21:57.175Z,100231.69
2023-08-24T05:24:24.125Z,100243.25
2023-08-24T05:26:51.047Z,100252.56
2023-08-24T05:29:18.002Z,100252.13
2023-08-24T05:31:44.970Z,100272.47
2023-08-24T05:34:11.895Z,100285.88
2023-08-24T05:36:38.853Z,100308.25
2023-08-24T05:39:06.858Z,100323.88
2023-08-24T05:41:35.227Z,100344.81
2023-08-24T05:44:02.266Z,100350.06
2023-08-24T05:46:29.796Z,100360.00
2023-08-24T05:48:59.586Z,100351.09
2023-08-24T05:51:26.751Z,100354.53
2023-08-24T05:53:56.604Z,100359.41
2023-08-24T05:56:23.762Z,100353.72
2023-08-24T05:58:51.169Z,100345.19
2023-08-24T06:01:18.452Z,100339.91
2023-08-24T06:03:45.424Z,100328.09
2023-08-24T06:06:12.424Z,100326.91
2023-08-24T06:08:39.489Z,100322.38
2023-08-24T06:11:07.810Z,100321.16
2023-08-24T06:13:34.994Z,100332.50
2023-08-24T06:16:03.010Z,100326.34
2023-08-24T06:18:30.050Z,100314.31
2023-08-24T06:20:57.005Z,100298.72
2023-08-24T06:23:24.060Z,100303.34
2023-08-24T06:25:50.987Z,100291.56
2023-08-24T06:28:17.959Z,100292.75
2023-08-24T06:30:45.765Z,100282.47
2023-08-24T06:33:15.970Z,100281.13
2023-08-24T06:35:43.155Z,100282.31
2023-08-24T06:38:10.086Z,100278.31
2023-08-24T06:40:37.075Z,100266.59
2023-08-24T06:43:05.213Z,100263.44
2023-08-24T06:45:32.874Z,100265.03
2023-08-24T06:47:59.875Z,100263.72
2023-08-24T06:50:27.380Z,100275.81
2023-08-24T06:52:54.325Z,100278.31
2023-08-24T06:55:21.451Z,100279.16
2023-08-24T06:57:52.454Z,100272.97
2023-08-24T07:00:23.611Z,100264.44
2023-08-24T07:02:52.489Z,100269.03
2023-08-24T07:05:20.015Z,100262.03
2023-08-24T07:07:48.578Z,100269.69
2023-08-24T07:10:15.941Z,100284.56
2023-08-24T07:12:42.917Z,100266.78
2023-08-24T07:15:10.765Z,100261.78
2023-08-24T07:17:38.010Z,100265.09
2023-08-24T07:20:07.044Z,100258.41
2023-08-24T07:22:34.220Z,100241.66
2023-08-24T07:25:06.005Z,100241.53
2023-08-24T07:27:34.859Z,100244.63
2023-08-24T07:30:17.930Z,100246.94
2023-08-24T07:32:57.066Z,100247.75
2023-08-24T07:35:25.904Z,100261.03
2023-08-24T07:37:53.202Z,100268.34
2023-08-24T07:40:20.368Z,100273.06
2023-08-24T07:42:54.478Z,100275.81
2023-08-24T07:45:22.369Z,100273.75
2023-08-24T07:47:50.119Z,100289.53
2023-08-24T07:50:17.649Z,100304.59
2023-08-24T07:52:44.667Z,100297.84
2023-08-24T07:55:11.766Z,100293.72
2023-08-24T07:57:39.129Z,100293.16
2023-08-24T08:00:09.412Z,100277.69
2023-08-24T08:02:38.766Z,100273.19
2023-08-24T08:05:11.653Z,100273.75
2023-08-24T08:07:39.225Z,100285.66
2023-08-24T08:10:07.715Z,100269.72
2023-08-24T08:12:35.826Z,100272.25
2023-08-24T08:15:03.299Z,100276.28
2023-08-24T08:17:31.757Z,100276.94
2023-08-24T08:19:58.972Z,100271.13
2023-08-24T08:22:26.670Z,100256.94
2023-08-24T08:24:57.571Z,100250.63
2023-08-24T08:27:24.730Z,100235.31
2023-08-24T08:29:51.995Z,100231.53
2023-08-24T08:32:19.211Z,100225.72
2023-08-24T08:34:46.266Z,100218.25
2023-08-24T08:37:13.321Z,100198.88
2023-08-24T08:39:40.381Z,100199.78
2023-08-24T08:42:14.604Z,100178.28
2023-08-24T08:44:44.005Z,100165.97
2023-08-24T08:47:12.858Z,100159.38
2023-08-24T08:49:40.885Z,100139.69
2023-08-24T08:52:08.355Z,100147.09
2023-08-24T08:54:35.363Z,100144.94
2023-08-24T08:57:03.151Z,100147.66
2023-08-24T08:59:31.575Z,100152.47
2023-08-24T09:01:59.366Z,100152.28
2023-08-24T09:04:27.060Z,100147.97
2023-08-24T09:06:54.254Z,100137.19
2023-08-24T09:09:21.776Z,100140.13
2023-08-24T09:11:49.535Z,100131.28
2023-08-24T09:14:16.520Z,100136.22
2023-08-24T09:16:43.729Z,100129.78
2023-08-24T09:19:13.381Z,100120.53
2023-08-24T09:21:42.727Z,100119.03
2023-08-24T09:24:10.113Z,100103.88
2023-08-24T09:26:43.760Z,100094.84
2023-08-24T09:29:16.728Z,100087.97
2023-08-24T09:31:47.523Z,100079.16
2023-08-24T09:34:14.518Z,100076.75
2023-08-24T09:36:42.045Z,100079.69
2023-08-24T09:39:09.381Z,100082.09
2023-08-24T09:41:44.233Z,100081.06
2023-08-24T09:44:12.920Z,100072.69
2023-08-24T09:46:41.763Z,100067.94
2023-08-24T09:49:11.054Z,100063.13
2023-08-24T09:51:40.219Z,100056.94
2023-08-24T09:54:11.099Z,100051.03
2023-08-24T09:56:40.568Z,100042.28
2023-08-24T09:59:19.424Z,100041.72
2023-08-24T10:01:49.124Z,100029.47
2023-08-24T10:04:23.517Z,100034.09
2023-08-24T10:06:57.175Z,100035.84
2023-08-24T10:09:41.536Z,100023.75
2023-08-24T10:12:10.273Z,100014.81
2023-08-24T10:14:55.021Z,100003.00
2023-08-24T10:17:24.416Z,100005.81
2023-08-24T10:19:54.153Z,100000.47
2023-08-24T10:22:21.894Z,99999.13
2023-08-24T10:24:49.924Z,99990.38
2023-08-24T10:27:18.224Z,99988.84
2023-08-24T10:29:45.226Z,99976.00
2023-08-24T10:32:12.596Z,99971.97
2023-08-24T10:34:39.542Z,99968.41
2023-08-24T10:37:11.673Z,99965.31
2023-08-24T10:39:47.054Z,99954.88
2023-08-24T10:42:15.303Z,99956.56
2023-08-24T10:44:50.656Z,99941.34
2023-08-24T10:47:27.184Z,99939.22
2023-08-24T10:49:57.495Z,99933.94
2023-08-24T10:52:40.243Z,99930.06
2023-08-24T10:55:27.757Z,99920.13
2023-08-24T10:58:01.446Z,99915.88
2023-08-24T11:00:30.648Z,99904.44
2023-08-24T11:03:01.029Z,99908.72
2023-08-24T11:05:33.294Z,99911.81
2023-08-24T11:08:04.927Z,99924.38
2023-08-24T11:10:47.845Z,99922.09
2023-08-24T11:13:23.835Z,99925.28
2023-08-24T11:16:00.325Z,99924.13
2023-08-24T11:18:30.170Z,99905.06
2023-08-24T11:21:05.859Z,99903.56
2023-08-24T11:23:33.707Z,99895.63
2023-08-24T11:26:02.033Z,99894.56
2023-08-24T11:28:31.318Z,99891.53
2023-08-24T11:31:00.469Z,99893.34
2023-08-24T11:33:37.204Z,99886.25
2023-08-24T11:36:05.700Z,99890.22
2023-08-24T11:38:43.635Z,99883.31
2023-08-24T11:41:19.410Z,99871.78
2023-08-24T11:43:48.950Z,99868.34
2023-08-24T11:46:20.341Z,99857.59
2023-08-24T11:48:47.590Z,99853.94
2023-08-24T11:51:16.163Z,99852.56
2023-08-24T11:53:48.143Z,99838.66
2023-08-24T11:56:19.621Z,99854.47
2023-08-24T11:58:51.630Z,99834.88
2023-08-24T12:01:19.380Z,99836.09
2023-08-24T12:03:46.611Z,99828.22
2023-08-24T12:06:18.050Z,99842.69
2023-08-24T12:08:50.067Z,99838.97
2023-08-24T12:11:26.161Z,99831.13
2023-08-24T12:13:55.885Z,99827.06
2023-08-24T12:16:26.862Z,99829.72
2023-08-24T12:19:00.790Z,99841.28
2023-08-24T12:21:30.485Z,99823.59
2023-08-24T12:24:10.419Z,99825.78
2023-08-24T12:26:37.762Z,99811.72
2023-08-24T12:29:09.773Z,99789.56
2023-08-24T12:31:38.027Z,99769.47
2023-08-24T12:34:07.230Z,99768.22
2023-08-24T12:36:37.755Z,99773.16
2023-08-24T12:39:07.162Z,99778.94
2023-08-24T12:41:34.453Z,99789.19
2023-08-24T12:44:06.165Z,99784.44
2023-08-24T12:46:37.074Z,99790.22
2023-08-24T12:49:04.572Z,99789.06
2023-08-24T12:51:31.560Z,99782.78
2023-08-24T12:53:58.708Z,99775.41
2023-08-24T12:56:25.689Z,99762.22
2023-08-24T12:58:52.843Z,99759.75
2023-08-24T13:01:19.802Z,99767.63
2023-08-24T13:03:46.799Z,99760.91
2023-08-24T13:08:48.456Z,99763.72
2023-08-24T13:11:15.651Z,99776.47
2023-08-24T13:13:42.711Z,99766.66
2023-08-24T13:16:09.668Z,99778.50
2023-08-24T13:18:36.620Z,99761.03
2023-08-24T13:21:03.667Z,99770.97
2023-08-24T13:23:30.669Z,99777.66
2023-08-24T13:26:01.135Z,99766.19
2023-08-24T13:28:29.027Z,99770.31
2023-08-24T13:30:56.102Z,99768.28
2023-08-24T13:33:23.095Z,99760.22
2023-08-24T13:35:50.048Z,99759.69
2023-08-24T13:38:17.036Z,99726.19
2023-08-24T13:40:44.655Z,99733.78
2023-08-24T13:43:12.995Z,99761.69
2023-08-24T13:45:39.935Z,99797.91
2023-08-24T13:48:07.757Z,99806.34
2023-08-24T13:50:34.847Z,99827.34
2023-08-24T13:53:01.816Z,99848.22
2023-08-24T13:55:28.845Z,99868.41
2023-08-24T13:57:56.994Z,99887.59
2023-08-24T14:00:24.486Z,99915.09
2023-08-24T14:02:51.982Z,99961.34
2023-08-24T14:05:19.303Z,99988.59
2023-08-24T14:07:46.242Z,100014.63
2023-08-24T14:10:13.213Z,100046.31
2023-08-24T14:12:40.156Z,100092.22
2023-08-24T14:15:07.883Z,100148.00
2023-08-24T14:17:34.999Z,100176.47
2023-08-24T14:20:02.040Z,100142.63
2023-08-24T14:22:29.029Z,100001.28
2023-08-24T14:24:56.067Z,99883.88
2023-08-24T14:27:23.177Z,99830.38
2023-08-24T14:29:50.091Z,99779.41
2023-08-24T14:32:17.095Z,99760.16
2023-08-24T14:34:44.512Z,99750.13
2023-08-24T14:37:11.497Z,99788.09
2023-08-24T14:39:38.520Z,99772.91
2023-08-24T14:42:05.763Z,99767.59
2023-08-24T14:44:32.950Z,99766.75
2023-08-24T14:46:59.908Z,99782.22
2023-08-24T14:49:27.038Z,99772.09
2023-08-24T14:51:54.213Z,99775.81
2023-08-24T14:54:21.249Z,99770.03
2023-08-24T14:56:48.361Z,99776.44
2023-08-24T14:59:15.496Z,99772.97
2023-08-24T15:01:42.486Z,99778.06
2023-08-24T15:04:09.956Z,99781.25
2023-08-24T15:06:39.849Z,99792.75
2023-08-24T15:09:07.638Z,99804.78
2023-08-24T15:11:34.704Z,99811.25
2023-08-24T15:14:01.729Z,99805.47
2023-08-24T15:16:28.777Z,99800.38
2023-08-24T15:18:55.814Z,99799.06
2023-08-24T15:21:22.865Z,99782.72
2023-08-24T15:23:49.813Z,99794.69
2023-08-24T15:26:16.884Z,99791.38
2023-08-24T15:29:16.877Z,99799.88
2023-08-24T15:31:44.097Z,99802.81
2023-08-24T15:34:12.204Z,99795.72
2023-08-24T15:36:39.494Z,99799.38
2023-08-24T15:39:07.406Z,99795.69
2023-08-24T15:41:34.452Z,99799.78
2023-08-24T15:44:01.530Z,99798.13
2023-08-24T15:46:28.596Z,99816.03
2023-08-24T15:48:56.927Z,99814.78
2023-08-24T15:51:24.980Z,99818.50
2023-08-24T15:53:52.151Z,99810.78
2023-08-24T15:56:19.266Z,99800.53
2023-08-24T15:58:47.092Z,99809.94
2023-08-24T16:01:14.346Z,99813.38
2023-08-24T16:03:43.097Z,99803.16
2023-08-24T16:06:10.606Z,99782.19
2023-08-24T16:08:37.620Z,99784.47
2023-08-24T16:11:04.645Z,99775.34
2023-08-24T16:13:31.691Z,99768.88
2023-08-24T16:16:01.088Z,99775.56
2023-08-24T16:18:29.156Z,99788.69
2023-08-24T16:20:56.166Z,99807.28
2023-08-24T16:23:23.190Z,99824.97
2023-08-24T16:25:51.040Z,99866.47
2023-08-24T16:28:18.057Z,99885.44
2023-08-24T16:30:50.792Z,99915.91
2023-08-24T16:33:19.369Z,99931.88
2023-08-24T16:35:47.562Z,99957.78
2023-08-24T16:38:15.420Z,99949.31
2023-08-24T16:40:42.553Z,99955.47
2023-08-24T16:43:10.089Z,99965.91
2023-08-24T16:45:37.438Z,99975.53
2023-08-24T16:48:05.189Z,99964.25
2023-08-24T16:50:32.380Z,99964.13
2023-08-24T16:52:59.479Z,99956.75
2023-08-24T16:55:26.407Z,99960.38
2023-08-24T16:57:53.477Z,99991.53
2023-08-24T17:00:20.875Z,100038.13
2023-08-24T17:02:48.190Z,100009.97
2023-08-24T17:05:15.232Z,99980.97
2023-08-24T17:07:42.446Z,100046.50
2023-08-24T17:10:10.192Z,100098.13
2023-08-24T17:12:37.749Z,100111.75
2023-08-24T17:15:06.320Z,100016.44
2023-08-24T17:17:35.451Z,99941.94
2023-08-24T17:20:02.698Z,99945.94
2023-08-24T17:22:29.645Z,99952.72
2023-08-24T17:24:56.572Z,99951.75
2023-08-24T17:27:23.596Z,99955.28
2023-08-24T17:29:50.568Z,99933.84
2023-08-24T17:32:17.536Z,99896.47
2023-08-24T17:34:45.543Z,99870.66
2023-08-24T17:37:13.008Z,99855.91
2023-08-24T17:39:40.027Z,99865.09
2023-08-24T17:42:07.079Z,99870.97
2023-08-24T17:44:35.073Z,99867.53
2023-08-24T17:47:02.097Z,99919.69
2023-08-24T17:49:29.049Z,99927.22
2023-08-24T17:51:56.033Z,99956.94
2023-08-24T17:54:23.023Z,99987.94
2023-08-24T17:56:50.286Z,100001.22
2023-08-24T17:59:17.234Z,100002.19
2023-08-24T18:01:44.198Z,99976.38
2023-08-24T18:04:11.288Z,99968.03
2023-08-24T18:06:38.315Z,99993.94
2023-08-24T18:09:08.141Z,100018.28
2023-08-24T18:11:38.128Z,99996.75
2023-08-24T18:14:05.609Z,100028.91
2023-08-24T18:16:32.768Z,100017.06
2023-08-24T18:18:59.914Z,100000.31
2023-08-24T18:21:26.933Z,100036.91
2023-08-24T18:23:54.032Z,100033.59
2023-08-24T18:26:21.072Z,99998.88
2023-08-24T18:28:48.073Z,100003.94
2023-08-24T18:31:15.426Z,99983.56
2023-08-24T18:33:42.364Z,99908.59
2023-08-24T18:36:09.469Z,99828.78
2023-08-24T18:38:36.472Z,99761.97
2023-08-24T18:41:04.925Z,99811.56
2023-08-24T18:43:32.033Z,99862.59
2023-08-24T18:46:03.950Z,99844.38
2023-08-24T18:48:32.054Z,99849.47
2023-08-24T18:50:59.138Z,99814.59
2023-08-24T18:53:26.247Z,99809.38
2023-08-24T18:55:57.348Z,99795.38
2023-08-24T18:58:24.402Z,99836.69
2023-08-24T19:00:59.533Z,99837.09
2023-08-24T19:03:27.803Z,99808.78
2023-08-24T19:05:54.928Z,99794.28
2023-08-24T19:08:22.004Z,99799.75
2023-08-24T19:10:49.113Z,99795.16
2023-08-24T19:13:16.258Z,99796.69
2023-08-24T19:15:43.289Z,99780.72
2023-08-24T19:18:11.507Z,99801.16
2023-08-24T19:20:42.960Z,99826.25
2023-08-24T19:23:10.221Z,99838.72
2023-08-24T19:25:37.514Z,99871.00
2023-08-24T19:28:04.880Z,99883.09
2023-08-24T19:30:31.877Z,99879.03
2023-08-24T19:32:58.916Z,99901.34
2023-08-24T19:35:25.872Z,99903.81
2023-08-24T19:37:52.980Z,99886.19
2023-08-24T19:40:20.224Z,99885.25
2023-08-24T19:42:47.848Z,99871.81
2023-08-24T19:45:15.158Z,99852.13
2023-08-24T19:47:42.148Z,99845.56
2023-08-24T19:50:09.718Z,99850.31
2023-08-24T19:52:43.723Z,99840.47
2023-08-24T19:55:11.328Z,99854.97
2023-08-24T19:57:38.396Z,99863.50
2023-08-24T20:00:07.961Z,99865.72
2023-08-24T20:02:36.644Z,99876.75
2023-08-24T20:05:04.727Z,99859.34
2023-08-24T20:07:31.816Z,99865.84
2023-08-24T20:09:59.049Z,99857.63
2023-08-24T20:12:26.044Z,99838.38
2023-08-24T20:14:53.004Z,99823.00
2023-08-24T20:17:19.977Z,99802.41
2023-08-24T20:19:47.679Z,99779.38
2023-08-24T20:22:14.864Z,99752.59
2023-08-24T20:24:41.915Z,99775.31
2023-08-24T20:27:09.579Z,99789.78
2023-08-24T20:29:36.503Z,99789.44
2023-08-24T20:32:04.723Z,99796.50
2023-08-24T20:34:31.779Z,99797.28
2023-08-24T20:36:59.097Z,99791.88
2023-08-24T20:39:26.246Z,99801.66
2023-08-24T20:42:23.903Z,99812.25
2023-08-24T20:44:52.586Z,99830.91
2023-08-24T20:47:21.404Z,99841.94
2023-08-24T20:49:51.180Z,99822.13
2023-08-24T20:52:19.390Z,99812.47
2023-08-24T20:54:49.708Z,99816.75
2023-08-24T20:57:16.872Z,99813.28
2023-08-24T20:59:44.463Z,99811.41
2023-08-24T21:02:11.549Z,99803.34
2023-08-24T21:04:38.829Z,99795.38
2023-08-24T21:07:06.229Z,99797.13
2023-08-24T21:09:33.192Z,99796.09
2023-08-24T21:12:00.297Z,99792.75
2023-08-24T21:14:27.271Z,99772.66
2023-08-24T21:16:54.293Z,99777.56
2023-08-24T21:19:21.293Z,99786.66
2023-08-24T21:21:48.701Z,99787.59
2023-08-24T21:24:15.702Z,99791.63
2023-08-24T21:26:42.639Z,99795.09
2023-08-24T21:29:09.546Z,99787.97
2023-08-24T21:31:36.658Z,99791.66
2023-08-24T21:34:03.648Z,99801.41
2023-08-24T21:36:30.583Z,99795.69
2023-08-24T21:38:57.561Z,99796.50
2023-08-24T21:41:24.699Z,99807.41
2023-08-24T21:43:51.681Z,99800.03
2023-08-24T21:46:19.219Z,99809.59
2023-08-24T21:48:46.505Z,99828.50
2023-08-24T21:51:13.481Z,99837.22
2023-08-24T21:53:40.393Z,99837.47
2023-08-24T21:56:07.494Z,99839.78
2023-08-24T21:58:35.246Z,99847.50
2023-08-24T22:01:08.274Z,99850.16
2023-08-24T22:03:36.437Z,99844.06
2023-08-24T22:06:04.189Z,99847.66
2023-08-24T22:08:31.644Z,99837.72
2023-08-24T22:10:59.056Z,99841.44
2023-08-24T22:13:27.203Z,99836.22
2023-08-24T22:15:55.729Z,99840.63
2023-08-24T22:18:23.268Z,99848.19
2023-08-24T22:20:50.561Z,99840.00
2023-08-24T22:23:17.989Z,99833.31
2023-08-24T22:25:45.441Z,99830.31
2023-08-24T22:28:13.226Z,99827.88
2023-08-24T22:30:42.491Z,99828.59
2023-08-24T22:33:09.543Z,99832.50
2023-08-24T22:35:36.614Z,99830.44
2023-08-24T22:38:03.819Z,99830.31
2023-08-24T22:40:31.139Z,99835.38
2023-08-24T22:42:58.115Z,99823.28
2023-08-24T22:45:37.150Z,99824.56
2023-08-24T22:48:05.996Z,99829.63
2023-08-24T22:50:32.944Z,99821.91
2023-08-24T22:53:00.098Z,99820.50
2023-08-24T22:55:27.117Z,99831.00
2023-08-24T22:57:54.219Z,99831.13
2023-08-24T23:00:21.524Z,99844.50
2023-08-24T23:02:48.561Z,99847.53
2023-08-24T23:05:15.620Z,99843.59
2023-08-24T23:07:42.799Z,99850.47
2023-08-24T23:10:10.102Z,99852.06
2023-08-24T23:12:37.166Z,99847.03
2023-08-24T23:15:06.054Z,99843.47
2023-08-24T23:17:33.045Z,99843.59
2023-08-24T23:20:00.118Z,99840.59
2023-08-24T23:22:27.379Z,99852.22
2023-08-24T23:24:54.288Z,99836.56
2023-08-24T23:27:22.093Z,99845.91
2023-08-24T23:29:49.013Z,99839.69
2023-08-24T23:32:17.522Z,99826.78
2023-08-24T23:34:44.874Z,99812.00
2023-08-24T23:37:11.898Z,99813.63
2023-08-24T23:39:38.989Z,99824.34
2023-08-24T23:42:06.166Z,99824.34
2023-08-24T23:44:33.146Z,99824.31
2023-08-24T23:47:00.126Z,99837.38
2023-08-24T23:49:27.066Z,99835.63
2023-08-24T23:51:54.053Z,99842.34
2023-08-24T23:54:21.187Z,99838.75
2023-08-24T23:56:48.100Z,99841.88
2023-08-24T23:59:14.989Z,99838.09
